Terminal Aerodrome Forecast
Issued by NWS

Home | Current Version | Previous Version | Text Only | Print | Product List | Glossary On
Versions: 1 2 3 4 5 6 7 8 9 10 11 12
000
FTUS46 KSTO 240520
TAFSMF
TAF
KSMF 240520Z 2406/2506 14008KT P6SM VCSH BKN050
      TEMPO 2409/2412 5SM -SHRA OVC050
     FM242100 34007KT P6SM SCT250
     FM250200 33003KT P6SM SKC=

USA.gov is the U.S. government's official web portal to all federal, state and local government web resources and services.